sensor_id;sensor_type;location;lat;lon;timestamp;pressure;altitude;pressure_sealevel;temperature;humidity
55315;BME280;41619;42.816;23.226;2023-02-23T00:00:28;95392.53;;;2.08;62.01
55315;BME280;41619;42.816;23.226;2023-02-23T00:02:58;95390.63;;;2.08;61.58
55315;BME280;41619;42.816;23.226;2023-02-23T00:05:30;95391.41;;;2.09;61.69
55315;BME280;41619;42.816;23.226;2023-02-23T00:07:56;95390.31;;;2.10;61.44
55315;BME280;41619;42.816;23.226;2023-02-23T00:10:22;95393.31;;;2.08;62.17
55315;BME280;41619;42.816;23.226;2023-02-23T00:12:56;95387.91;;;2.08;61.72
55315;BME280;41619;42.816;23.226;2023-02-23T00:15:22;95393.31;;;2.08;61.85
55315;BME280;41619;42.816;23.226;2023-02-23T00:17:54;95386.66;;;2.06;61.99
55315;BME280;41619;42.816;23.226;2023-02-23T00:20:21;95387.75;;;2.05;62.12
55315;BME280;41619;42.816;23.226;2023-02-23T00:22:54;95389.47;;;2.01;62.49
55315;BME280;41619;42.816;23.226;2023-02-23T00:25:21;95386.59;;;1.97;62.32
55315;BME280;41619;42.816;23.226;2023-02-23T00:27:47;95392.31;;;1.96;61.92
55315;BME280;41619;42.816;23.226;2023-02-23T00:30:15;95385.31;;;1.95;62.65
55315;BME280;41619;42.816;23.226;2023-02-23T00:32:42;95394.84;;;1.92;62.10
55315;BME280;41619;42.816;23.226;2023-02-23T00:35:08;95395.94;;;1.91;62.88
55315;BME280;41619;42.816;23.226;2023-02-23T00:37:50;95393.75;;;1.93;62.44
55315;BME280;41619;42.816;23.226;2023-02-23T00:40:17;95383.41;;;1.87;62.86
55315;BME280;41619;42.816;23.226;2023-02-23T00:42:46;95384.94;;;1.79;62.71
55315;BME280;41619;42.816;23.226;2023-02-23T00:45:12;95383.31;;;1.69;62.47
55315;BME280;41619;42.816;23.226;2023-02-23T00:47:40;95393.09;;;1.57;62.40
55315;BME280;41619;42.816;23.226;2023-02-23T00:50:10;95389.34;;;1.44;62.49
55315;BME280;41619;42.816;23.226;2023-02-23T00:52:41;95396.63;;;1.35;62.49
55315;BME280;41619;42.816;23.226;2023-02-23T00:55:12;95392.16;;;1.30;62.75
55315;BME280;41619;42.816;23.226;2023-02-23T00:57:37;95397.59;;;1.16;62.70
55315;BME280;41619;42.816;23.226;2023-02-23T01:00:04;95397.81;;;1.06;62.75
55315;BME280;41619;42.816;23.226;2023-02-23T01:02:46;95401.75;;;1.00;62.67
55315;BME280;41619;42.816;23.226;2023-02-23T01:05:12;95397.28;;;0.96;62.85
55315;BME280;41619;42.816;23.226;2023-02-23T01:07:39;95398.69;;;0.93;63.05
55315;BME280;41619;42.816;23.226;2023-02-23T01:10:05;95404.59;;;0.95;62.84
55315;BME280;41619;42.816;23.226;2023-02-23T01:12:52;95399.38;;;0.99;62.67
55315;BME280;41619;42.816;23.226;2023-02-23T01:15:19;95402.56;;;1.01;63.31
55315;BME280;41619;42.816;23.226;2023-02-23T01:17:46;95400.34;;;1.03;62.85
55315;BME280;41619;42.816;23.226;2023-02-23T01:20:13;95405.91;;;1.06;63.24
55315;BME280;41619;42.816;23.226;2023-02-23T01:22:48;95402.13;;;1.07;63.07
55315;BME280;41619;42.816;23.226;2023-02-23T01:25:15;95407.50;;;1.07;63.62
55315;BME280;41619;42.816;23.226;2023-02-23T01:27:41;95397.81;;;1.06;63.79
55315;BME280;41619;42.816;23.226;2023-02-23T01:30:09;95403.72;;;1.08;63.60
55315;BME280;41619;42.816;23.226;2023-02-23T01:32:35;95401.00;;;1.08;63.49
55315;BME280;41619;42.816;23.226;2023-02-23T01:35:07;95403.41;;;1.10;63.78
55315;BME280;41619;42.816;23.226;2023-02-23T01:37:34;95400.41;;;1.11;63.91
55315;BME280;41619;42.816;23.226;2023-02-23T01:40:01;95404.91;;;1.16;64.21
55315;BME280;41619;42.816;23.226;2023-02-23T01:42:30;95403.78;;;1.17;64.06
55315;BME280;41619;42.816;23.226;2023-02-23T01:45:21;95403.16;;;1.20;64.30
55315;BME280;41619;42.816;23.226;2023-02-23T01:47:48;95403.66;;;1.22;63.88
55315;BME280;41619;42.816;23.226;2023-02-23T01:50:15;95405.25;;;1.23;64.20
55315;BME280;41619;42.816;23.226;2023-02-23T01:52:43;95405.25;;;1.23;64.34
55315;BME280;41619;42.816;23.226;2023-02-23T01:55:10;95409.22;;;1.26;64.52
55315;BME280;41619;42.816;23.226;2023-02-23T01:57:39;95404.00;;;1.29;64.70
55315;BME280;41619;42.816;23.226;2023-02-23T02:00:06;95400.25;;;1.30;64.82
55315;BME280;41619;42.816;23.226;2023-02-23T02:02:39;95399.13;;;1.31;64.83
55315;BME280;41619;42.816;23.226;2023-02-23T02:05:04;95398.03;;;1.32;65.20
55315;BME280;41619;42.816;23.226;2023-02-23T02:07:37;95394.72;;;1.35;65.05
55315;BME280;41619;42.816;23.226;2023-02-23T02:10:06;95404.09;;;1.38;64.86
55315;BME280;41619;42.816;23.226;2023-02-23T02:12:36;95404.69;;;1.35;64.59
55315;BME280;41619;42.816;23.226;2023-02-23T02:15:02;95399.41;;;1.30;64.98
55315;BME280;41619;42.816;23.226;2023-02-23T02:20:13;95404.09;;;1.15;65.19
55315;BME280;41619;42.816;23.226;2023-02-23T02:28:53;95404.75;;;0.99;65.30
55315;BME280;41619;42.816;23.226;2023-02-23T02:39:25;95399.28;;;0.90;65.71
55315;BME280;41619;42.816;23.226;2023-02-23T02:42:08;95392.31;;;0.89;65.63
55315;BME280;41619;42.816;23.226;2023-02-23T02:47:08;95402.91;;;0.85;64.99
55315;BME280;41619;42.816;23.226;2023-02-23T02:49:48;95395.91;;;0.84;65.50
55315;BME280;41619;42.816;23.226;2023-02-23T02:52:20;95399.72;;;0.83;65.61
55315;BME280;41619;42.816;23.226;2023-02-23T02:54:52;95397.34;;;0.82;65.38
55315;BME280;41619;42.816;23.226;2023-02-23T02:57:23;95391.16;;;0.81;65.73
55315;BME280;41619;42.816;23.226;2023-02-23T02:59:50;95393.03;;;0.81;65.61
55315;BME280;41619;42.816;23.226;2023-02-23T03:02:36;95393.03;;;0.81;65.55
55315;BME280;41619;42.816;23.226;2023-02-23T03:05:40;95396.34;;;0.78;66.07
55315;BME280;41619;42.816;23.226;2023-02-23T03:08:36;95388.88;;;0.75;65.81
55315;BME280;41619;42.816;23.226;2023-02-23T03:11:24;95388.88;;;0.75;66.44
55315;BME280;41619;42.816;23.226;2023-02-23T03:26:03;95406.66;;;0.62;66.30
55315;BME280;41619;42.816;23.226;2023-02-23T03:29:15;95406.19;;;0.60;66.34
55315;BME280;41619;42.816;23.226;2023-02-23T03:38:57;95419.72;;;0.55;66.35
55315;BME280;41619;42.816;23.226;2023-02-23T03:41:45;95417.34;;;0.53;66.57
55315;BME280;41619;42.816;23.226;2023-02-23T03:44:40;95419.53;;;0.51;66.54
55315;BME280;41619;42.816;23.226;2023-02-23T03:47:28;95423.63;;;0.49;66.80
55315;BME280;41619;42.816;23.226;2023-02-23T03:50:21;95424.25;;;0.46;66.42
55315;BME280;41619;42.816;23.226;2023-02-23T03:53:09;95420.28;;;0.43;66.50
55315;BME280;41619;42.816;23.226;2023-02-23T03:55:55;95417.09;;;0.41;66.94
55315;BME280;41619;42.816;23.226;2023-02-23T03:58:45;95418.19;;;0.40;66.61
55315;BME280;41619;42.816;23.226;2023-02-23T04:01:32;95421.66;;;0.41;66.79
55315;BME280;41619;42.816;23.226;2023-02-23T04:04:16;95418.75;;;0.37;66.53
55315;BME280;41619;42.816;23.226;2023-02-23T04:07:02;95421.44;;;0.37;66.71
55315;BME280;41619;42.816;23.226;2023-02-23T04:09:48;95426.34;;;0.35;66.74
55315;BME280;41619;42.816;23.226;2023-02-23T04:17:55;95419.78;;;0.27;67.14
55315;BME280;41619;42.816;23.226;2023-02-23T04:20:21;95419.78;;;0.27;67.07
55315;BME280;41619;42.816;23.226;2023-02-23T04:22:46;95416.59;;;0.25;66.92
55315;BME280;41619;42.816;23.226;2023-02-23T04:25:13;95422.78;;;0.26;66.96
55315;BME280;41619;42.816;23.226;2023-02-23T04:27:40;95421.50;;;0.23;67.30
55315;BME280;41619;42.816;23.226;2023-02-23T04:30:06;95424.00;;;0.20;67.34
55315;BME280;41619;42.816;23.226;2023-02-23T04:32:31;95423.19;;;0.19;67.26
55315;BME280;41619;42.816;23.226;2023-02-23T04:34:57;95424.25;;;0.18;67.45
55315;BME280;41619;42.816;23.226;2023-02-23T04:37:22;95426.94;;;0.18;67.13
55315;BME280;41619;42.816;23.226;2023-02-23T04:39:48;95427.25;;;0.17;67.60
55315;BME280;41619;42.816;23.226;2023-02-23T04:42:15;95426.75;;;0.15;67.08
55315;BME280;41619;42.816;23.226;2023-02-23T04:44:41;95421.97;;;0.12;67.03
55315;BME280;41619;42.816;23.226;2023-02-23T04:47:06;95430.66;;;0.09;67.05
55315;BME280;41619;42.816;23.226;2023-02-23T04:49:32;95431.44;;;0.09;67.18
55315;BME280;41619;42.816;23.226;2023-02-23T04:51:57;95430.06;;;0.12;67.46
55315;BME280;41619;42.816;23.226;2023-02-23T04:54:24;95428.47;;;0.11;67.13
55315;BME280;41619;42.816;23.226;2023-02-23T04:56:49;95421.00;;;0.08;67.51
55315;BME280;41619;42.816;23.226;2023-02-23T04:59:14;95432.06;;;0.06;67.59
55315;BME280;41619;42.816;23.226;2023-02-23T05:01:40;95424.09;;;0.01;67.60
55315;BME280;41619;42.816;23.226;2023-02-23T05:04:05;95428.94;;;-0.01;67.89
55315;BME280;41619;42.816;23.226;2023-02-23T05:06:31;95432.72;;;-0.02;67.88
55315;BME280;41619;42.816;23.226;2023-02-23T05:08:56;95435.72;;;-0.04;67.99
55315;BME280;41619;42.816;23.226;2023-02-23T05:11:22;95439.22;;;-0.03;67.77
55315;BME280;41619;42.816;23.226;2023-02-23T05:13:49;95435.41;;;-0.02;68.07
55315;BME280;41619;42.816;23.226;2023-02-23T05:16:14;95441.59;;;-0.02;67.86
55315;BME280;41619;42.816;23.226;2023-02-23T05:18:40;95442.41;;;-0.01;67.97
55315;BME280;41619;42.816;23.226;2023-02-23T05:21:07;95448.50;;;0.05;67.66
55315;BME280;41619;42.816;23.226;2023-02-23T05:23:36;95444.91;;;0.09;67.92
55315;BME280;41619;42.816;23.226;2023-02-23T05:26:07;95447.59;;;0.09;67.46
55315;BME280;41619;42.816;23.226;2023-02-23T05:28:34;95445.41;;;0.11;68.08
55315;BME280;41619;42.816;23.226;2023-02-23T05:31:00;95448.09;;;0.11;68.05
55315;BME280;41619;42.816;23.226;2023-02-23T05:33:25;95450.00;;;0.11;67.98
55315;BME280;41619;42.816;23.226;2023-02-23T05:35:51;95453.97;;;0.13;67.99
55315;BME280;41619;42.816;23.226;2023-02-23T05:38:16;95454.16;;;0.17;68.30
55315;BME280;41619;42.816;23.226;2023-02-23T05:40:41;95458.69;;;0.21;68.05
55315;BME280;41619;42.816;23.226;2023-02-23T05:43:07;95454.78;;;0.27;68.14
55315;BME280;41619;42.816;23.226;2023-02-23T05:45:32;95458.66;;;0.35;68.29
55315;BME280;41619;42.816;23.226;2023-02-23T05:47:58;95460.16;;;0.41;68.19
55315;BME280;41619;42.816;23.226;2023-02-23T05:50:24;95470.03;;;0.46;68.02
55315;BME280;41619;42.816;23.226;2023-02-23T05:52:50;95475.00;;;0.52;67.91
55315;BME280;41619;42.816;23.226;2023-02-23T05:55:16;95476.69;;;0.62;68.10
55315;BME280;41619;42.816;23.226;2023-02-23T05:57:41;95476.75;;;0.71;67.99
55315;BME280;41619;42.816;23.226;2023-02-23T06:00:09;95478.75;;;0.79;67.73
55315;BME280;41619;42.816;23.226;2023-02-23T06:02:35;95487.72;;;0.88;68.10
55315;BME280;41619;42.816;23.226;2023-02-23T06:05:01;95486.22;;;0.96;67.67
55315;BME280;41619;42.816;23.226;2023-02-23T06:07:26;95488.19;;;1.04;67.69
55315;BME280;41619;42.816;23.226;2023-02-23T06:09:52;95487.16;;;1.13;67.76
55315;BME280;41619;42.816;23.226;2023-02-23T06:12:18;95499.00;;;1.26;67.45
55315;BME280;41619;42.816;23.226;2023-02-23T06:14:43;95491.47;;;1.37;67.64
55315;BME280;41619;42.816;23.226;2023-02-23T06:17:08;95497.94;;;1.49;67.63
55315;BME280;41619;42.816;23.226;2023-02-23T06:19:34;95491.84;;;1.66;67.15
55315;BME280;41619;42.816;23.226;2023-02-23T06:21:59;95501.16;;;1.82;67.15
55315;BME280;41619;42.816;23.226;2023-02-23T06:24:25;95499.34;;;2.00;66.83
55315;BME280;41619;42.816;23.226;2023-02-23T06:26:50;95491.81;;;2.20;66.77
55315;BME280;41619;42.816;23.226;2023-02-23T06:29:16;95497.19;;;2.42;66.22
55315;BME280;41619;42.816;23.226;2023-02-23T06:31:42;95501.53;;;2.69;66.44
55315;BME280;41619;42.816;23.226;2023-02-23T06:34:08;95497.00;;;2.95;65.83
55315;BME280;41619;42.816;23.226;2023-02-23T06:36:34;95504.19;;;3.26;65.45
55315;BME280;41619;42.816;23.226;2023-02-23T06:39:00;95509.47;;;3.57;65.23
55315;BME280;41619;42.816;23.226;2023-02-23T06:41:26;95496.03;;;3.86;65.23
55315;BME280;41619;42.816;23.226;2023-02-23T06:43:51;95496.16;;;4.16;64.80
55315;BME280;41619;42.816;23.226;2023-02-23T06:46:18;95504.66;;;4.44;64.68
55315;BME280;41619;42.816;23.226;2023-02-23T06:48:43;95499.94;;;4.70;64.74
55315;BME280;41619;42.816;23.226;2023-02-23T06:51:09;95500.59;;;4.97;64.53
55315;BME280;41619;42.816;23.226;2023-02-23T06:53:35;95501.69;;;5.25;64.24
55315;BME280;41619;42.816;23.226;2023-02-23T06:56:02;95498.44;;;5.53;63.60
55315;BME280;41619;42.816;23.226;2023-02-23T06:58:28;95508.44;;;5.82;64.07
55315;BME280;41619;42.816;23.226;2023-02-23T07:00:55;95501.25;;;6.19;63.78
55315;BME280;41619;42.816;23.226;2023-02-23T07:03:21;95493.50;;;6.54;63.03
55315;BME280;41619;42.816;23.226;2023-02-23T07:05:47;95494.97;;;6.88;63.69
55315;BME280;41619;42.816;23.226;2023-02-23T07:08:15;95496.56;;;7.25;63.65
55315;BME280;41619;42.816;23.226;2023-02-23T07:10:41;95492.81;;;7.70;64.76
55315;BME280;41619;42.816;23.226;2023-02-23T07:13:06;95496.97;;;8.52;66.02
55315;BME280;41619;42.816;23.226;2023-02-23T07:15:34;95494.72;;;10.71;63.65
55315;BME280;41619;42.816;23.226;2023-02-23T07:18:00;95491.09;;;13.07;58.73
55315;BME280;41619;42.816;23.226;2023-02-23T07:20:25;95484.94;;;15.16;53.31
55315;BME280;41619;42.816;23.226;2023-02-23T07:22:50;95482.84;;;16.93;49.10
55315;BME280;41619;42.816;23.226;2023-02-23T07:25:16;95479.06;;;18.41;45.80
55315;BME280;41619;42.816;23.226;2023-02-23T07:27:41;95474.59;;;19.58;43.21
55315;BME280;41619;42.816;23.226;2023-02-23T07:30:09;95471.47;;;20.39;41.11
55315;BME280;41619;42.816;23.226;2023-02-23T07:32:35;95474.25;;;20.95;40.04
55315;BME280;41619;42.816;23.226;2023-02-23T07:35:02;95473.00;;;21.65;37.84
55315;BME280;41619;42.816;23.226;2023-02-23T07:37:27;95467.69;;;22.32;36.72
55315;BME280;41619;42.816;23.226;2023-02-23T07:39:52;95461.47;;;23.08;35.40
55315;BME280;41619;42.816;23.226;2023-02-23T07:42:18;95461.44;;;23.59;34.43
55315;BME280;41619;42.816;23.226;2023-02-23T07:44:43;95462.09;;;24.32;33.03
55315;BME280;41619;42.816;23.226;2023-02-23T07:47:10;95449.38;;;25.55;31.03
55315;BME280;41619;42.816;23.226;2023-02-23T07:49:35;95448.09;;;26.23;29.76
55315;BME280;41619;42.816;23.226;2023-02-23T07:52:00;95452.72;;;26.72;29.07
55315;BME280;41619;42.816;23.226;2023-02-23T07:54:26;95451.09;;;27.08;28.79
55315;BME280;41619;42.816;23.226;2023-02-23T07:56:52;95449.50;;;27.82;27.63
55315;BME280;41619;42.816;23.226;2023-02-23T07:59:17;95454.53;;;28.26;26.36
55315;BME280;41619;42.816;23.226;2023-02-23T08:01:43;95441.88;;;28.75;24.93
55315;BME280;41619;42.816;23.226;2023-02-23T08:04:08;95445.78;;;29.21;24.01
55315;BME280;41619;42.816;23.226;2023-02-23T08:06:34;95443.25;;;29.73;22.79
55315;BME280;41619;42.816;23.226;2023-02-23T08:09:00;95439.47;;;29.76;22.80
55315;BME280;41619;42.816;23.226;2023-02-23T08:11:25;95440.53;;;30.20;22.03
55315;BME280;41619;42.816;23.226;2023-02-23T08:13:55;95439.25;;;30.41;21.71
55315;BME280;41619;42.816;23.226;2023-02-23T08:16:31;95441.44;;;31.03;21.46
55315;BME280;41619;42.816;23.226;2023-02-23T08:18:57;95442.31;;;31.15;21.37
55315;BME280;41619;42.816;23.226;2023-02-23T08:21:24;95438.66;;;31.41;20.14
55315;BME280;41619;42.816;23.226;2023-02-23T08:23:49;95437.59;;;31.70;20.08
55315;BME280;41619;42.816;23.226;2023-02-23T08:26:15;95440.41;;;31.70;20.18
55315;BME280;41619;42.816;23.226;2023-02-23T08:28:40;95427.97;;;31.93;19.66
55315;BME280;41619;42.816;23.226;2023-02-23T08:31:09;95432.09;;;31.98;19.55
55315;BME280;41619;42.816;23.226;2023-02-23T08:33:35;95438.47;;;31.81;19.21
55315;BME280;41619;42.816;23.226;2023-02-23T08:36:03;95433.78;;;31.78;18.51
55315;BME280;41619;42.816;23.226;2023-02-23T08:38:28;95429.25;;;31.92;18.12
55315;BME280;41619;42.816;23.226;2023-02-23T08:40:54;95427.38;;;31.78;18.58
55315;BME280;41619;42.816;23.226;2023-02-23T08:43:19;95430.63;;;31.65;18.99
55315;BME280;41619;42.816;23.226;2023-02-23T08:45:45;95419.13;;;31.74;18.06
55315;BME280;41619;42.816;23.226;2023-02-23T08:48:10;95419.66;;;31.41;18.01
55315;BME280;41619;42.816;23.226;2023-02-23T08:50:35;95426.31;;;31.75;17.94
55315;BME280;41619;42.816;23.226;2023-02-23T08:53:01;95419.91;;;32.34;17.67
55315;BME280;41619;42.816;23.226;2023-02-23T08:55:28;95423.66;;;32.03;17.78
55315;BME280;41619;42.816;23.226;2023-02-23T08:57:53;95413.91;;;32.15;17.34
55315;BME280;41619;42.816;23.226;2023-02-23T09:00:19;95424.59;;;31.83;17.38
55315;BME280;41619;42.816;23.226;2023-02-23T09:02:45;95414.16;;;31.63;17.25
55315;BME280;41619;42.816;23.226;2023-02-23T09:05:13;95428.50;;;31.23;17.24
55315;BME280;41619;42.816;23.226;2023-02-23T09:07:39;95412.34;;;30.97;17.11
55315;BME280;41619;42.816;23.226;2023-02-23T09:10:06;95422.66;;;31.00;17.40
55315;BME280;41619;42.816;23.226;2023-02-23T09:12:32;95411.03;;;30.93;17.77
55315;BME280;41619;42.816;23.226;2023-02-23T09:14:57;95422.81;;;31.17;17.53
55315;BME280;41619;42.816;23.226;2023-02-23T09:17:23;95415.66;;;31.22;16.82
55315;BME280;41619;42.816;23.226;2023-02-23T09:19:49;95409.88;;;29.92;16.94
55315;BME280;41619;42.816;23.226;2023-02-23T09:22:15;95415.22;;;27.69;18.60
55315;BME280;41619;42.816;23.226;2023-02-23T09:24:42;95415.91;;;25.60;20.22
55315;BME280;41619;42.816;23.226;2023-02-23T09:27:08;95417.00;;;23.86;21.49
55315;BME280;41619;42.816;23.226;2023-02-23T09:29:36;95416.78;;;22.28;23.02
55315;BME280;41619;42.816;23.226;2023-02-23T09:32:05;95419.59;;;21.21;24.29
55315;BME280;41619;42.816;23.226;2023-02-23T09:34:31;95413.38;;;20.65;24.98
55315;BME280;41619;42.816;23.226;2023-02-23T09:36:56;95415.03;;;20.03;25.74
55315;BME280;41619;42.816;23.226;2023-02-23T09:39:22;95411.53;;;19.35;26.80
55315;BME280;41619;42.816;23.226;2023-02-23T09:42:08;95416.63;;;18.63;27.51
55315;BME280;41619;42.816;23.226;2023-02-23T09:45:00;95418.00;;;18.17;28.47
55315;BME280;41619;42.816;23.226;2023-02-23T09:47:32;95417.00;;;18.04;28.55
55315;BME280;41619;42.816;23.226;2023-02-23T09:50:20;95415.41;;;18.03;28.64
55315;BME280;41619;42.816;23.226;2023-02-23T09:52:52;95411.69;;;17.83;29.46
55315;BME280;41619;42.816;23.226;2023-02-23T09:55:19;95421.16;;;17.48;29.94
55315;BME280;41619;42.816;23.226;2023-02-23T09:57:47;95413.41;;;17.32;30.37
55315;BME280;41619;42.816;23.226;2023-02-23T10:03:02;95413.84;;;18.02;31.31
55315;BME280;41619;42.816;23.226;2023-02-23T10:05:33;95411.94;;;19.11;30.76
55315;BME280;41619;42.816;23.226;2023-02-23T10:08:07;95405.22;;;20.90;29.27
55315;BME280;41619;42.816;23.226;2023-02-23T10:10:50;95399.56;;;23.35;27.19
55315;BME280;41619;42.816;23.226;2023-02-23T10:18:59;95380.22;;;29.06;21.20
55315;BME280;41619;42.816;23.226;2023-02-23T10:21:40;95385.19;;;28.97;20.55
55315;BME280;41619;42.816;23.226;2023-02-23T10:24:29;95379.94;;;29.04;20.67
55315;BME280;41619;42.816;23.226;2023-02-23T10:26:58;95379.44;;;29.06;20.85
55315;BME280;41619;42.816;23.226;2023-02-23T10:29:31;95369.53;;;29.10;20.00
55315;BME280;41619;42.816;23.226;2023-02-23T10:32:02;95369.50;;;28.22;20.00
55315;BME280;41619;42.816;23.226;2023-02-23T10:34:30;95372.31;;;26.51;20.88
55315;BME280;41619;42.816;23.226;2023-02-23T10:37:01;95371.16;;;24.80;22.46
55315;BME280;41619;42.816;23.226;2023-02-23T10:39:28;95359.03;;;23.30;23.77
55315;BME280;41619;42.816;23.226;2023-02-23T10:41:57;95362.97;;;22.44;24.82
55315;BME280;41619;42.816;23.226;2023-02-23T10:44:24;95362.88;;;22.05;25.27
55315;BME280;41619;42.816;23.226;2023-02-23T10:46:55;95354.59;;;22.02;26.49
55315;BME280;41619;42.816;23.226;2023-02-23T10:49:27;95353.81;;;22.81;26.26
55315;BME280;41619;42.816;23.226;2023-02-23T10:51:54;95345.03;;;24.21;25.25
55315;BME280;41619;42.816;23.226;2023-02-23T10:54:47;95341.66;;;26.02;23.49
55315;BME280;41619;42.816;23.226;2023-02-23T10:59:59;95329.91;;;28.11;21.32
55315;BME280;41619;42.816;23.226;2023-02-23T11:02:26;95329.22;;;28.16;21.29
55315;BME280;41619;42.816;23.226;2023-02-23T11:04:56;95319.59;;;28.08;20.49
55315;BME280;41619;42.816;23.226;2023-02-23T11:07:27;95320.69;;;28.25;20.64
55315;BME280;41619;42.816;23.226;2023-02-23T11:10:22;95315.25;;;28.80;20.42
55315;BME280;41619;42.816;23.226;2023-02-23T11:12:47;95305.94;;;28.89;19.70
55315;BME280;41619;42.816;23.226;2023-02-23T11:15:26;95303.03;;;28.10;19.75
55315;BME280;41619;42.816;23.226;2023-02-23T11:18:02;95303.19;;;27.53;19.93
55315;BME280;41619;42.816;23.226;2023-02-23T11:20:35;95307.31;;;26.52;20.53
55315;BME280;41619;42.816;23.226;2023-02-23T11:23:22;95301.19;;;24.80;21.49
55315;BME280;41619;42.816;23.226;2023-02-23T11:25:52;95297.53;;;23.77;22.36
55315;BME280;41619;42.816;23.226;2023-02-23T11:30:56;95294.63;;;21.56;24.43
55315;BME280;41619;42.816;23.226;2023-02-23T11:33:28;95287.88;;;20.79;25.22
55315;BME280;41619;42.816;23.226;2023-02-23T11:35:59;95291.84;;;20.29;25.69
55315;BME280;41619;42.816;23.226;2023-02-23T11:38:27;95290.38;;;20.05;26.23
55315;BME280;41619;42.816;23.226;2023-02-23T11:41:03;95288.44;;;19.85;26.35
55315;BME280;41619;42.816;23.226;2023-02-23T11:43:29;95284.25;;;19.77;26.60
55315;BME280;41619;42.816;23.226;2023-02-23T11:45:57;95283.25;;;19.67;26.84
55315;BME280;41619;42.816;23.226;2023-02-23T11:50:50;95280.59;;;19.21;27.09
55315;BME280;41619;42.816;23.226;2023-02-23T11:53:22;95275.78;;;19.01;27.39
55315;BME280;41619;42.816;23.226;2023-02-23T11:55:53;95277.13;;;18.93;27.71
55315;BME280;41619;42.816;23.226;2023-02-23T11:58:46;95274.69;;;18.95;28.33
55315;BME280;41619;42.816;23.226;2023-02-23T12:01:20;95277.75;;;18.81;28.32
55315;BME280;41619;42.816;23.226;2023-02-23T12:03:53;95271.44;;;18.54;28.58
55315;BME280;41619;42.816;23.226;2023-02-23T12:06:38;95269.63;;;18.16;29.16
55315;BME280;41619;42.816;23.226;2023-02-23T12:11:36;95271.34;;;17.80;30.03
55315;BME280;41619;42.816;23.226;2023-02-23T12:14:19;95274.63;;;17.71;30.17
55315;BME280;41619;42.816;23.226;2023-02-23T12:16:52;95269.88;;;17.72;30.13
55315;BME280;41619;42.816;23.226;2023-02-23T12:19:33;95266.81;;;17.63;30.32
55315;BME280;41619;42.816;23.226;2023-02-23T12:24:45;95261.38;;;17.55;30.33
55315;BME280;41619;42.816;23.226;2023-02-23T12:27:30;95255.53;;;17.50;30.46
55315;BME280;41619;42.816;23.226;2023-02-23T12:32:59;95258.53;;;17.29;30.75
55315;BME280;41619;42.816;23.226;2023-02-23T12:35:32;95254.22;;;17.24;31.03
55315;BME280;41619;42.816;23.226;2023-02-23T12:40:42;95254.38;;;17.10;31.17
55315;BME280;41619;42.816;23.226;2023-02-23T12:43:23;95246.81;;;17.17;30.97
55315;BME280;41619;42.816;23.226;2023-02-23T12:45:56;95245.09;;;17.31;31.02
55315;BME280;41619;42.816;23.226;2023-02-23T12:51:03;95233.50;;;17.39;30.87
55315;BME280;41619;42.816;23.226;2023-02-23T12:53:38;95243.28;;;17.47;30.81
55315;BME280;41619;42.816;23.226;2023-02-23T13:02:13;95233.34;;;17.53;30.75
55315;BME280;41619;42.816;23.226;2023-02-23T13:07:44;95240.13;;;17.49;31.48
55315;BME280;41619;42.816;23.226;2023-02-23T13:10:34;95242.38;;;17.58;31.34
55315;BME280;41619;42.816;23.226;2023-02-23T13:15:57;95230.09;;;17.59;31.16
55315;BME280;41619;42.816;23.226;2023-02-23T13:18:44;95231.81;;;17.49;31.06
55315;BME280;41619;42.816;23.226;2023-02-23T13:29:06;95231.16;;;17.38;31.22
55315;BME280;41619;42.816;23.226;2023-02-23T13:31:37;95226.47;;;17.35;31.07
55315;BME280;41619;42.816;23.226;2023-02-23T13:34:06;95225.72;;;17.31;31.02
55315;BME280;41619;42.816;23.226;2023-02-23T13:36:34;95230.19;;;17.21;31.12
55315;BME280;41619;42.816;23.226;2023-02-23T13:42:13;95234.25;;;17.09;31.49
55315;BME280;41619;42.816;23.226;2023-02-23T13:47:44;95234.38;;;16.99;31.62
55315;BME280;41619;42.816;23.226;2023-02-23T13:53:05;95233.75;;;16.84;32.16
55315;BME280;41619;42.816;23.226;2023-02-23T13:55:34;95228.69;;;16.79;31.52
55315;BME280;41619;42.816;23.226;2023-02-23T13:58:14;95237.00;;;16.75;32.06
55315;BME280;41619;42.816;23.226;2023-02-23T14:00:41;95233.09;;;16.69;32.10
55315;BME280;41619;42.816;23.226;2023-02-23T14:03:21;95235.88;;;16.65;32.43
55315;BME280;41619;42.816;23.226;2023-02-23T14:05:51;95233.59;;;16.57;32.45
55315;BME280;41619;42.816;23.226;2023-02-23T14:08:33;95231.63;;;16.54;32.93
55315;BME280;41619;42.816;23.226;2023-02-23T14:11:00;95234.50;;;16.43;32.84
55315;BME280;41619;42.816;23.226;2023-02-23T14:13:29;95226.72;;;16.31;33.76
55315;BME280;41619;42.816;23.226;2023-02-23T14:18:32;95240.31;;;16.08;34.93
55315;BME280;41619;42.816;23.226;2023-02-23T14:29:23;95236.69;;;15.59;36.43
55315;BME280;41619;42.816;23.226;2023-02-23T14:34:51;95233.19;;;15.40;37.11
55315;BME280;41619;42.816;23.226;2023-02-23T14:37:35;95230.50;;;15.30;37.28
55315;BME280;41619;42.816;23.226;2023-02-23T14:40:09;95236.84;;;15.20;37.65
55315;BME280;41619;42.816;23.226;2023-02-23T14:42:37;95239.66;;;15.09;37.76
55315;BME280;41619;42.816;23.226;2023-02-23T14:45:24;95245.56;;;15.00;38.32
55315;BME280;41619;42.816;23.226;2023-02-23T14:47:54;95252.31;;;14.92;38.24
55315;BME280;41619;42.816;23.226;2023-02-23T14:50:34;95253.50;;;14.80;38.79
55315;BME280;41619;42.816;23.226;2023-02-23T14:53:01;95248.41;;;14.68;38.88
55315;BME280;41619;42.816;23.226;2023-02-23T14:55:30;95249.63;;;14.53;39.22
55315;BME280;41619;42.816;23.226;2023-02-23T14:58:00;95246.44;;;14.40;39.65
55315;BME280;41619;42.816;23.226;2023-02-23T15:00:28;95259.03;;;14.31;39.47
55315;BME280;41619;42.816;23.226;2023-02-23T15:03:08;95261.41;;;14.18;39.75
55315;BME280;41619;42.816;23.226;2023-02-23T15:05:48;95259.41;;;14.08;40.27
55315;BME280;41619;42.816;23.226;2023-02-23T15:08:19;95267.28;;;13.99;40.26